Time,TemperatureF,DewpointF,PressureIn,WindDirection,WindDirectionDegrees,WindSpeedMPH,WindSpeedGustMPH,Humidity,HourlyPrecipIn,Conditions,Clouds,dailyrainin,SoftwareType,DateUTC
2013-01-26 00:02:00,53.0,53.0,-100.00,NE,37,-999.0,-999.0,100,-99.99,,,-99.99,,2013-01-26 08:02:00,
2013-01-26 00:11:00,53.0,53.0,-100.00,NE,37,-999.0,-999.0,100,-99.99,,,-99.99,,2013-01-26 08:11:00,
2013-01-26 00:21:00,54.0,54.0,-100.00,NE,35,-999.0,-999.0,100,-99.99,,,-99.99,,2013-01-26 08:21:00,
2013-01-26 00:31:00,54.0,54.0,-100.00,NE,35,-999.0,-999.0,100,-99.99,,,-99.99,,2013-01-26 08:31:00,
2013-01-26 00:42:00,54.0,54.0,-100.00,NE,35,-999.0,-999.0,100,-99.99,,,-99.99,,2013-01-26 08:42:00,
2013-01-26 00:53:00,53.0,53.0,-100.00,NNE,14,-999.0,-999.0,99,-99.99,,,-99.99,,2013-01-26 08:53:00,
2013-01-26 01:01:00,53.0,53.0,-100.00,NNE,14,-999.0,-999.0,99,-99.99,,,-99.99,,2013-01-26 09:01:00,
2013-01-26 01:11:00,53.0,53.0,-100.00,NNE,14,-999.0,-999.0,99,-99.99,,,-99.99,,2013-01-26 09:11:00,
2013-01-26 01:22:00,54.0,53.0,-100.00,NNE,28,-999.0,-999.0,97,-99.99,,,-99.99,,2013-01-26 09:22:00,
2013-01-26 01:31:00,54.0,53.0,-100.00,NNE,28,-999.0,-999.0,97,-99.99,,,-99.99,,2013-01-26 09:31:00,
2013-01-26 01:42:00,54.0,53.0,-100.00,NNE,28,-999.0,-999.0,97,-99.99,,,-99.99,,2013-01-26 09:42:00,
2013-01-26 01:52:00,54.0,53.0,-100.00,NE,40,-999.0,-999.0,96,-99.99,,,-99.99,,2013-01-26 09:52:00,
2013-01-26 02:01:00,54.0,53.0,-100.00,NE,40,-999.0,-999.0,96,-99.99,,,-99.99,,2013-01-26 10:01:00,
2013-01-26 02:11:00,54.0,53.0,-100.00,NE,40,-999.0,-999.0,96,-99.99,,,-99.99,,2013-01-26 10:11:00,
2013-01-26 02:21:00,54.0,53.0,-100.00,NNE,12,-999.0,-999.0,96,-99.99,,,-99.99,,2013-01-26 10:21:00,
2013-01-26 02:31:00,54.0,53.0,-100.00,NNE,12,-999.0,-999.0,96,-99.99,,,-99.99,,2013-01-26 10:31:00,
2013-01-26 02:42:00,54.0,53.0,-100.00,NNE,12,-999.0,-999.0,96,-99.99,,,-99.99,,2013-01-26 10:42:00,
2013-01-26 02:52:00,54.0,53.0,-100.00,ENE,68,-999.0,-999.0,97,-99.99,,,0.01,,2013-01-26 10:52:00,
2013-01-26 03:01:00,54.0,53.0,-100.00,ENE,68,-999.0,-999.0,97,-99.99,,,0.01,,2013-01-26 11:01:00,
2013-01-26 03:12:00,54.0,53.0,-100.00,ENE,68,-999.0,-999.0,97,-99.99,,,0.01,,2013-01-26 11:12:00,
2013-01-26 03:21:00,53.0,52.0,-100.00,North,11,-999.0,-999.0,97,-99.99,,,-99.99,,2013-01-26 11:21:00,
2013-01-26 03:32:00,53.0,52.0,-100.00,North,11,-999.0,-999.0,97,-99.99,,,-99.99,,2013-01-26 11:32:00,
2013-01-26 03:42:00,53.0,52.0,-100.00,North,11,-999.0,-999.0,97,-99.99,,,-99.99,,2013-01-26 11:42:00,
2013-01-26 03:52:00,53.0,52.0,-100.00,North,2,-999.0,-999.0,98,-99.99,,,-99.99,,2013-01-26 11:52:00,
2013-01-26 04:01:00,53.0,52.0,-100.00,North,2,-999.0,-999.0,98,-99.99,,,-99.99,,2013-01-26 12:01:00,
2013-01-26 04:12:00,53.0,52.0,-100.00,North,2,-999.0,-999.0,98,-99.99,,,-99.99,,2013-01-26 12:12:00,
2013-01-26 04:22:00,53.0,52.0,-100.00,North,2,-999.0,-999.0,98,-99.99,,,-99.99,,2013-01-26 12:22:00,
2013-01-26 07:53:00,55.0,52.0,-100.00,North,-999,-999.0,-999.0,90,-99.99,,,-99.99,,2013-01-26 15:53:00,
2013-01-26 08:02:00,55.0,52.0,-100.00,North,-999,-999.0,-999.0,90,-99.99,,,-99.99,,2013-01-26 16:02:00,
2013-01-26 08:12:00,55.0,52.0,-100.00,North,-999,-999.0,-999.0,90,-99.99,,,-99.99,,2013-01-26 16:12:00,
2013-01-26 08:21:00,55.0,52.0,-100.00,NNW,336,-999.0,-999.0,91,-99.99,,,-99.99,,2013-01-26 16:21:00,
2013-01-26 08:31:00,55.0,52.0,-100.00,NNW,336,-999.0,-999.0,91,-99.99,,,-99.99,,2013-01-26 16:31:00,
2013-01-26 08:32:00,57.0,54.0,-100.00,West,263,-999.0,-999.0,89,-99.99,,,-99.99,,2013-01-26 16:32:00,
2013-01-26 08:43:00,55.0,52.0,-100.00,NNW,336,-999.0,-999.0,91,-99.99,,,-99.99,,2013-01-26 16:43:00,
2013-01-26 08:53:00,57.0,54.0,-100.00,West,263,-999.0,-999.0,89,-99.99,,,-99.99,,2013-01-26 16:53:00,
2013-01-26 09:02:00,57.0,54.0,-100.00,West,263,-999.0,-999.0,89,-99.99,,,-99.99,,2013-01-26 17:02:00,
2013-01-26 09:12:00,57.0,54.0,-100.00,West,263,-999.0,-999.0,89,-99.99,,,-99.99,,2013-01-26 17:12:00,
2013-01-26 09:22:00,57.0,54.0,-100.00,West,263,-999.0,-999.0,89,-99.99,,,-99.99,,2013-01-26 17:22:00,
2013-01-26 09:53:00,60.0,54.0,-100.00,ENE,57,-999.0,-999.0,81,-99.99,,,-99.99,,2013-01-26 17:53:00,
2013-01-26 10:02:00,60.0,54.0,-100.00,ENE,57,-999.0,-999.0,81,-99.99,,,-99.99,,2013-01-26 18:02:00,
2013-01-26 10:12:00,60.0,54.0,-100.00,ENE,57,-999.0,-999.0,81,-99.99,,,-99.99,,2013-01-26 18:12:00,
2013-01-26 10:22:00,63.0,55.0,-100.00,SSE,159,-999.0,-999.0,75,-99.99,,,-99.99,,2013-01-26 18:22:00,
2013-01-26 10:32:00,63.0,55.0,-100.00,SSE,159,-999.0,-999.0,75,-99.99,,,-99.99,,2013-01-26 18:32:00,
2013-01-26 10:42:00,63.0,55.0,-100.00,SSE,159,-999.0,-999.0,75,-99.99,,,-99.99,,2013-01-26 18:42:00,
2013-01-26 10:52:00,66.0,56.0,-100.00,South,180,-999.0,-999.0,70,-99.99,,,-99.99,,2013-01-26 18:52:00,
2013-01-26 11:02:00,66.0,56.0,-100.00,South,180,-999.0,-999.0,70,-99.99,,,-99.99,,2013-01-26 19:02:00,
2013-01-26 11:11:00,66.0,56.0,-100.00,South,180,-999.0,-999.0,70,-99.99,,,-99.99,,2013-01-26 19:11:00,
2013-01-26 11:22:00,63.0,57.0,-100.00,West,278,-999.0,-999.0,80,-99.99,,,-99.99,,2013-01-26 19:22:00,
2013-01-26 11:32:00,63.0,57.0,-100.00,West,278,-999.0,-999.0,80,-99.99,,,-99.99,,2013-01-26 19:32:00,
2013-01-26 11:42:00,63.0,57.0,-100.00,West,278,-999.0,-999.0,80,-99.99,,,-99.99,,2013-01-26 19:42:00,
2013-01-26 11:52:00,63.0,57.0,-100.00,West,278,-999.0,-999.0,80,-99.99,,,-99.99,,2013-01-26 19:52:00,
2013-01-26 14:52:00,66.0,54.0,-100.00,WNW,283,-999.0,-999.0,65,-99.99,,,0.01,,2013-01-26 22:52:00,
2013-01-26 15:01:00,66.0,54.0,-100.00,WNW,283,-999.0,-999.0,65,-99.99,,,0.01,,2013-01-26 23:01:00,
2013-01-26 15:11:00,66.0,54.0,-100.00,WNW,283,-999.0,-999.0,65,-99.99,,,0.01,,2013-01-26 23:11:00,
2013-01-26 15:21:00,63.0,55.0,-100.00,WNW,298,-999.0,-999.0,74,-99.99,,,-99.99,,2013-01-26 23:21:00,
2013-01-26 15:32:00,63.0,55.0,-100.00,WNW,298,-999.0,-999.0,74,-99.99,,,-99.99,,2013-01-26 23:32:00,
2013-01-26 15:42:00,63.0,55.0,-100.00,WNW,298,-999.0,-999.0,74,-99.99,,,-99.99,,2013-01-26 23:42:00,
2013-01-26 15:52:00,65.0,57.0,-100.00,WSW,243,-999.0,-999.0,75,-99.99,,,-99.99,,2013-01-26 23:52:00,
2013-01-26 16:01:00,65.0,57.0,-100.00,WSW,243,-999.0,-999.0,75,-99.99,,,-99.99,,2013-01-27 00:01:00,
2013-01-26 16:11:00,65.0,57.0,-100.00,WSW,243,-999.0,-999.0,75,-99.99,,,-99.99,,2013-01-27 00:11:00,
2013-01-26 16:21:00,64.0,56.0,-100.00,South,185,-999.0,-999.0,76,-99.99,,,-99.99,,2013-01-27 00:21:00,
2013-01-26 16:31:00,64.0,56.0,-100.00,South,185,-999.0,-999.0,76,-99.99,,,-99.99,,2013-01-27 00:31:00,
2013-01-26 16:42:00,64.0,56.0,-100.00,South,185,-999.0,-999.0,76,-99.99,,,-99.99,,2013-01-27 00:42:00,
2013-01-26 16:52:00,61.0,56.0,-100.00,WSW,251,-999.0,-999.0,84,-99.99,,,-99.99,,2013-01-27 00:52:00,
2013-01-26 17:01:00,61.0,56.0,-100.00,WSW,251,-999.0,-999.0,84,-99.99,,,-99.99,,2013-01-27 01:01:00,
2013-01-26 17:11:00,61.0,56.0,-100.00,WSW,251,-999.0,-999.0,84,-99.99,,,-99.99,,2013-01-27 01:11:00,
2013-01-26 17:22:00,58.0,55.0,-100.00,SSW,192,-999.0,-999.0,89,-99.99,,,-99.99,,2013-01-27 01:22:00,
2013-01-26 17:32:00,58.0,55.0,-100.00,SSW,192,-999.0,-999.0,89,-99.99,,,-99.99,,2013-01-27 01:32:00,
2013-01-26 17:42:00,58.0,55.0,-100.00,SSW,192,-999.0,-999.0,89,-99.99,,,-99.99,,2013-01-27 01:42:00,
2013-01-26 17:52:00,53.0,53.0,-100.00,SW,230,-999.0,-999.0,99,-99.99,,,-99.99,,2013-01-27 01:52:00,
2013-01-26 18:01:00,53.0,53.0,-100.00,SW,230,-999.0,-999.0,99,-99.99,,,-99.99,,2013-01-27 02:01:00,
2013-01-26 18:11:00,53.0,53.0,-100.00,SW,230,-999.0,-999.0,99,-99.99,,,-99.99,,2013-01-27 02:11:00,
2013-01-26 18:21:00,52.0,51.0,-100.00,North,0,-999.0,-999.0,98,-99.99,,,-99.99,,2013-01-27 02:21:00,
2013-01-26 18:31:00,52.0,51.0,-100.00,North,0,-999.0,-999.0,98,-99.99,,,-99.99,,2013-01-27 02:31:00,
2013-01-26 18:42:00,52.0,51.0,-100.00,North,0,-999.0,-999.0,98,-99.99,,,-99.99,,2013-01-27 02:42:00,
2013-01-26 18:52:00,50.0,50.0,-100.00,North,0,-999.0,-999.0,100,-99.99,,,-99.99,,2013-01-27 02:52:00,
2013-01-26 19:01:00,50.0,50.0,-100.00,North,0,-999.0,-999.0,100,-99.99,,,-99.99,,2013-01-27 03:01:00,
2013-01-26 19:11:00,50.0,50.0,-100.00,North,0,-999.0,-999.0,100,-99.99,,,-99.99,,2013-01-27 03:11:00,
2013-01-26 19:21:00,51.0,51.0,-100.00,NNE,16,-999.0,-999.0,100,-99.99,,,-99.99,,2013-01-27 03:21:00,
2013-01-26 19:31:00,51.0,51.0,-100.00,NNE,16,-999.0,-999.0,100,-99.99,,,-99.99,,2013-01-27 03:31:00,
2013-01-26 19:42:00,51.0,51.0,-100.00,NNE,16,-999.0,-999.0,100,-99.99,,,-99.99,,2013-01-27 03:42:00,
2013-01-26 19:52:00,50.0,50.0,-100.00,NNE,18,-999.0,-999.0,100,-99.99,,,-99.99,,2013-01-27 03:52:00,
2013-01-26 20:01:00,50.0,50.0,-100.00,NNE,18,-999.0,-999.0,100,-99.99,,,-99.99,,2013-01-27 04:01:00,
2013-01-26 20:11:00,50.0,50.0,-100.00,NNE,18,-999.0,-999.0,100,-99.99,,,-99.99,,2013-01-27 04:11:00,
2013-01-26 20:21:00,49.0,49.0,-100.00,NNE,18,-999.0,-999.0,100,-99.99,,,-99.99,,2013-01-27 04:21:00,
2013-01-26 20:31:00,49.0,49.0,-100.00,NNE,18,-999.0,-999.0,100,-99.99,,,-99.99,,2013-01-27 04:31:00,
2013-01-26 20:42:00,49.0,49.0,-100.00,NNE,18,-999.0,-999.0,100,-99.99,,,-99.99,,2013-01-27 04:42:00,
2013-01-26 20:52:00,49.0,49.0,-100.00,North,-999,-999.0,-999.0,100,-99.99,,,-99.99,,2013-01-27 04:52:00,
2013-01-26 21:03:00,49.0,49.0,-100.00,North,-999,-999.0,-999.0,100,-99.99,,,-99.99,,2013-01-27 05:03:00,
2013-01-26 21:12:00,49.0,49.0,-100.00,North,-999,-999.0,-999.0,100,-99.99,,,-99.99,,2013-01-27 05:12:00,
2013-01-26 21:22:00,49.0,49.0,-100.00,North,358,-999.0,-999.0,100,-99.99,,,-99.99,,2013-01-27 05:22:00,
2013-01-26 21:31:00,49.0,49.0,-100.00,North,358,-999.0,-999.0,100,-99.99,,,-99.99,,2013-01-27 05:31:00,
2013-01-26 21:42:00,49.0,49.0,-100.00,North,358,-999.0,-999.0,100,-99.99,,,-99.99,,2013-01-27 05:42:00,
2013-01-26 21:52:00,48.0,48.0,-100.00,NNW,345,-999.0,-999.0,100,-99.99,,,-99.99,,2013-01-27 05:52:00,
2013-01-26 22:01:00,48.0,48.0,-100.00,NNW,345,-999.0,-999.0,100,-99.99,,,-99.99,,2013-01-27 06:01:00,
2013-01-26 22:11:00,48.0,48.0,-100.00,NNW,345,-999.0,-999.0,100,-99.99,,,-99.99,,2013-01-27 06:11:00,
2013-01-26 22:21:00,47.0,47.0,-100.00,SW,232,-999.0,-999.0,100,-99.99,,,-99.99,,2013-01-27 06:21:00,
2013-01-26 22:31:00,47.0,47.0,-100.00,SW,232,-999.0,-999.0,100,-99.99,,,-99.99,,2013-01-27 06:31:00,
2013-01-26 22:42:00,47.0,47.0,-100.00,SW,232,-999.0,-999.0,100,-99.99,,,-99.99,,2013-01-27 06:42:00,
2013-01-26 22:52:00,47.0,47.0,-100.00,SW,232,-999.0,-999.0,100,-99.99,,,-99.99,,2013-01-27 06:52:00,
2013-01-26 23:01:00,47.0,47.0,-100.00,SW,232,-999.0,-999.0,100,-99.99,,,-99.99,,2013-01-27 07:01:00,
2013-01-26 23:13:00,47.0,47.0,-100.00,SW,232,-999.0,-999.0,100,-99.99,,,-99.99,,2013-01-27 07:13:00,
2013-01-26 23:21:00,48.0,48.0,-100.00,SW,232,-999.0,-999.0,100,-99.99,,,-99.99,,2013-01-27 07:21:00,
2013-01-26 23:31:00,48.0,48.0,-100.00,SW,232,-999.0,-999.0,100,-99.99,,,-99.99,,2013-01-27 07:31:00,
2013-01-26 23:42:00,48.0,48.0,-100.00,SW,232,-999.0,-999.0,100,-99.99,,,-99.99,,2013-01-27 07:42:00,
2013-01-26 23:52:00,47.0,47.0,-100.00,SW,236,-999.0,-999.0,100,-99.99,,,-99.99,,2013-01-27 07:52:00,